Time;durP1;ratioP1;P1;durP2;ratioP2;P2;SDS_P1;SDS_P2;PMS_P1;PMS_P2;Temp;Humidity;BMP_temperature;BMP_pressure;BME280_temperature;BME280_humidity;BME280_pressure;Samples;Min_cycle;Max_cycle;Signal;HPM_P1;HPM_P2
2023/10/14 00:00:27;;;;;;;21.97;13.33;;;10.80;99.90;;;;;;4243393;27;19930;-60
2023/10/14 00:02:28;;;;;;;26.60;15.57;;;10.80;99.90;;;;;;4244590;27;20043;-56
2023/10/14 00:04:30;;;;;;;28.03;16.40;;;10.70;99.90;;;;;;4242048;27;20637;-59
2023/10/14 00:06:38;;;;;;;24.20;16.77;;;10.70;99.90;;;;;;4244061;27;20035;-58
2023/10/14 00:08:48;;;;;;;23.43;14.87;;;10.60;99.90;;;;;;4243380;27;20051;-58
2023/10/14 00:10:49;;;;;;;22.92;12.80;;;10.60;99.90;;;;;;4244507;27;20387;-60
2023/10/14 00:12:53;;;;;;;20.67;13.77;;;10.50;99.90;;;;;;4243055;27;20027;-59
2023/10/14 00:14:56;;;;;;;22.10;11.13;;;10.50;99.90;;;;;;4244814;27;20095;-59
2023/10/14 00:16:58;;;;;;;18.83;11.63;;;10.40;99.90;;;;;;4243280;27;20083;-60
2023/10/14 00:19:04;;;;;;;21.63;9.73;;;10.40;99.90;;;;;;4244231;27;20084;-59
2023/10/14 00:21:10;;;;;;;23.97;11.37;;;10.40;99.90;;;;;;4243234;27;20500;-59
2023/10/14 00:23:11;;;;;;;14.47;10.00;;;10.40;99.90;;;;;;4227248;28;20087;-59
2023/10/14 00:25:19;;;;;;;16.20;10.30;;;10.40;99.90;;;;;;4233260;28;20116;-59
2023/10/14 00:27:21;;;;;;;16.47;10.93;;;10.40;99.90;;;;;;4244639;28;20031;-59
2023/10/14 00:29:23;;;;;;;17.00;10.47;;;10.30;99.90;;;;;;4242257;27;20035;-59
2023/10/14 00:31:25;;;;;;;15.23;10.17;;;10.30;99.90;;;;;;4243998;28;20104;-60
2023/10/14 00:33:27;;;;;;;18.40;12.07;;;10.20;99.90;;;;;;4243281;28;20069;-59
2023/10/14 00:35:28;;;;;;;18.70;10.57;;;10.20;99.90;;;;;;4243821;27;20142;-60
2023/10/14 00:37:33;;;;;;;15.30;10.07;;;10.20;99.90;;;;;;4243936;27;20043;-59
2023/10/14 00:39:34;;;;;;;18.20;10.43;;;10.10;99.90;;;;;;4242861;28;20102;-59
2023/10/14 00:41:36;;;;;;;17.67;11.10;;;10.10;99.90;;;;;;4243968;27;20139;-59
2023/10/14 00:43:39;;;;;;;14.67;10.17;;;10.10;99.90;;;;;;4243320;27;20487;-59
2023/10/14 00:45:44;;;;;;;17.00;10.70;;;10.10;99.90;;;;;;4244499;27;20459;-56
2023/10/14 00:47:47;;;;;;;13.73;9.73;;;10.00;99.90;;;;;;4243406;27;20428;-60
2023/10/14 00:49:55;;;;;;;13.13;9.80;;;10.00;99.90;;;;;;4244058;28;20027;-59
2023/10/14 00:51:59;;;;;;;19.50;11.40;;;10.00;99.90;;;;;;4228866;28;20059;-59
2023/10/14 00:54:02;;;;;;;18.00;10.70;;;10.10;99.90;;;;;;4230966;27;20040;-57
2023/10/14 00:56:03;;;;;;;23.43;13.17;;;10.10;99.90;;;;;;4229676;28;20020;-58
2023/10/14 00:58:05;;;;;;;18.67;11.93;;;10.00;99.90;;;;;;4242483;27;20425;-60
2023/10/14 01:00:10;;;;;;;17.30;11.10;;;10.00;99.90;;;;;;4246097;27;20119;-60
2023/10/14 01:02:12;;;;;;;16.50;10.77;;;10.00;99.90;;;;;;4247454;27;20035;-59
2023/10/14 01:04:19;;;;;;;20.47;11.93;;;10.00;99.90;;;;;;4245841;27;20026;-59
2023/10/14 01:06:23;;;;;;;18.57;12.00;;;10.00;99.90;;;;;;4246991;27;20101;-58
2023/10/14 01:08:25;;;;;;;16.57;10.87;;;10.00;99.90;;;;;;4246129;27;20028;-59
2023/10/14 01:10:27;;;;;;;20.63;11.03;;;10.00;99.90;;;;;;4246923;27;20128;-59
2023/10/14 01:12:40;;;;;;;16.33;10.07;;;9.90;99.90;;;;;;4246017;27;20060;-60
2023/10/14 01:14:44;;;;;;;15.70;10.13;;;9.90;99.90;;;;;;4247506;27;20100;-59
2023/10/14 01:16:47;;;;;;;20.30;10.63;;;9.80;99.90;;;;;;4246616;27;20088;-59
2023/10/14 01:18:48;;;;;;;45.87;11.23;;;9.70;99.90;;;;;;4246841;27;20043;-56
2023/10/14 01:20:50;;;;;;;94.47;13.00;;;9.50;99.90;;;;;;4243987;27;20043;-60
2023/10/14 01:23:06;;;;;;;230.13;17.53;;;9.40;99.90;;;;;;4246144;27;20039;-60
2023/10/14 01:25:12;;;;;;;177.87;14.03;;;9.30;99.90;;;;;;4246886;27;20108;-56
2023/10/14 01:27:14;;;;;;;47.63;10.43;;;9.10;99.90;;;;;;4245879;27;20088;-59
2023/10/14 01:29:15;;;;;;;16.27;10.90;;;9.10;99.90;;;;;;4246823;27;20035;-60
2023/10/14 01:31:52;;;;;;;18.13;11.70;;;9.00;99.90;;;;;;4245430;27;20047;-59
2023/10/14 01:33:55;;;;;;;18.83;12.33;;;9.00;99.90;;;;;;4246455;27;20072;-59
2023/10/14 01:35:59;;;;;;;40.43;13.20;;;8.90;99.90;;;;;;4246054;27;20469;-58
2023/10/14 01:38:01;;;;;;;22.97;11.63;;;8.70;99.90;;;;;;4246229;27;20035;-61
2023/10/14 01:40:37;;;;;;;28.07;12.80;;;8.60;99.90;;;;;;4245585;27;20043;-59
2023/10/14 01:42:30;;;;;;;20.27;12.13;;;8.50;99.90;;;;;;4243685;27;20043;-59
2023/10/14 01:44:31;;;;;;;17.57;12.57;;;8.50;99.90;;;;;;4246647;27;20088;-59
2023/10/14 01:46:34;;;;;;;22.20;12.43;;;8.50;99.90;;;;;;4246512;27;20080;-60
2023/10/14 01:48:38;;;;;;;63.93;12.73;;;8.50;99.90;;;;;;4245799;27;20084;-59
2023/10/14 01:50:45;;;;;;;90.73;14.00;;;8.50;99.90;;;;;;4246529;27;20433;-59
2023/10/14 01:52:47;;;;;;;200.73;16.73;;;8.50;99.90;;;;;;4245533;27;20035;-60
2023/10/14 01:54:48;;;;;;;74.00;15.30;;;8.50;99.90;;;;;;4246269;27;20043;-60
2023/10/14 01:56:51;;;;;;;25.17;13.57;;;8.40;99.90;;;;;;4245454;27;20096;-57
2023/10/14 01:58:57;;;;;;;52.40;14.67;;;8.40;99.90;;;;;;4247616;27;20492;-59
2023/10/14 02:03:15;;;;;;;101.60;17.13;;;8.40;99.90;;;;;;4246103;27;20088;-59
2023/10/14 02:05:16;;;;;;;70.40;16.67;;;8.30;99.90;;;;;;4244924;27;20107;-58
2023/10/14 02:07:21;;;;;;;60.30;17.23;;;8.20;99.90;;;;;;4245791;27;20131;-60
2023/10/14 02:09:22;;;;;;;56.03;16.90;;;8.20;99.90;;;;;;4244818;27;20080;-59
2023/10/14 02:11:24;;;;;;;49.20;16.50;;;8.20;99.90;;;;;;4245999;27;20027;-60
2023/10/14 02:13:25;;;;;;;63.33;17.83;;;8.10;99.90;;;;;;4245069;27;20043;-59
2023/10/14 02:15:26;;;;;;;47.20;18.93;;;8.10;99.90;;;;;;4246481;27;20038;-59
2023/10/14 02:17:28;;;;;;;69.43;19.23;;;8.00;99.90;;;;;;4245613;27;20043;-59
2023/10/14 02:21:33;;;;;;;104.07;21.37;;;8.00;99.90;;;;;;4244847;27;20092;-59
2023/10/14 02:23:45;;;;;;;55.43;16.87;;;7.90;99.90;;;;;;4245064;27;20437;-61
2023/10/14 02:25:55;;;;;;;122.97;22.10;;;7.90;99.90;;;;;;4245872;27;20385;-59
2023/10/14 02:27:56;;;;;;;106.78;22.20;;;7.90;99.90;;;;;;4245819;27;20508;-61
2023/10/14 02:29:58;;;;;;;112.90;22.47;;;7.90;99.90;;;;;;4245366;27;20027;-59
2023/10/14 02:32:00;;;;;;;172.87;26.57;;;7.90;99.90;;;;;;4245090;27;20436;-58
2023/10/14 02:34:08;;;;;;;71.07;21.47;;;7.90;99.90;;;;;;4245582;27;20088;-60
2023/10/14 02:36:14;;;;;;;46.53;19.97;;;7.90;99.90;;;;;;4245012;27;20035;-57
2023/10/14 02:38:17;;;;;;;41.20;20.57;;;7.90;99.90;;;;;;4245997;27;20080;-59
2023/10/14 02:40:24;;;;;;;66.13;21.17;;;8.00;99.90;;;;;;4244509;27;20063;-59
2023/10/14 02:42:25;;;;;;;75.17;21.80;;;8.00;99.90;;;;;;4245525;27;20039;-58
2023/10/14 02:44:28;;;;;;;89.47;20.70;;;8.10;99.90;;;;;;4245232;27;20031;-60
2023/10/14 02:46:29;;;;;;;59.50;19.83;;;8.10;99.90;;;;;;4245963;27;20146;-60
2023/10/14 02:48:52;;;;;;;33.27;19.00;;;8.10;99.90;;;;;;4244687;27;20074;-59
2023/10/14 02:50:51;;;;;;;126.17;24.27;;;8.10;99.90;;;;;;4245554;27;20027;-59
2023/10/14 02:53:01;;;;;;;62.80;21.10;;;8.20;99.90;;;;;;4244546;27;20092;-59
2023/10/14 02:55:21;;;;;;;40.03;18.90;;;8.20;99.90;;;;;;4245700;27;20095;-56
2023/10/14 02:59:44;;;;;;;70.60;18.63;;;8.20;99.90;;;;;;4246130;27;20031;-58
2023/10/14 03:02:10;;;;;;;56.80;18.93;;;8.20;99.90;;;;;;4244378;27;20428;-55
2023/10/14 03:04:07;;;;;;;98.93;18.90;;;8.20;99.90;;;;;;4232855;27;20414;-59
2023/10/14 03:06:14;;;;;;;68.03;18.20;;;8.10;99.90;;;;;;4243979;27;20043;-60
2023/10/14 03:08:16;;;;;;;36.53;17.83;;;8.10;99.90;;;;;;4244133;27;20087;-59
2023/10/14 03:12:19;;;;;;;50.17;18.33;;;8.10;99.90;;;;;;4244558;27;20429;-60
2023/10/14 03:14:20;;;;;;;112.00;21.03;;;8.10;99.90;;;;;;4244067;27;20031;-59
2023/10/14 03:16:21;;;;;;;71.17;19.57;;;8.10;99.90;;;;;;4244988;27;20023;-60
2023/10/14 03:18:30;;;;;;;45.20;18.37;;;8.10;99.90;;;;;;4243999;27;20080;-61
2023/10/14 03:22:35;;;;;;;141.10;22.57;;;8.10;99.90;;;;;;4243951;27;20031;-58
2023/10/14 03:24:38;;;;;;;37.17;17.60;;;8.00;99.90;;;;;;4244453;27;20043;-60
2023/10/14 03:26:40;;;;;;;95.30;22.03;;;8.00;99.90;;;;;;4244378;27;20360;-60
2023/10/14 03:28:44;;;;;;;29.23;18.00;;;8.00;99.90;;;;;;4244266;27;20534;-59
2023/10/14 03:30:58;;;;;;;39.63;19.33;;;8.00;99.90;;;;;;4244627;27;20023;-58
2023/10/14 03:33:00;;;;;;;66.00;19.93;;;8.10;99.90;;;;;;4244233;27;20019;-60
2023/10/14 03:35:10;;;;;;;54.90;19.33;;;8.10;99.90;;;;;;4244136;27;20417;-59
2023/10/14 03:37:25;;;;;;;54.28;18.33;;;8.10;99.90;;;;;;4244122;27;20128;-60
2023/10/14 03:39:46;;;;;;;49.27;17.60;;;8.20;99.90;;;;;;4244105;27;20091;-60
2023/10/14 03:41:52;;;;;;;45.67;18.87;;;8.20;99.90;;;;;;4244886;27;20649;-60
2023/10/14 03:46:03;;;;;;;58.50;18.17;;;8.20;99.90;;;;;;4242025;27;20417;-60
2023/10/14 03:48:08;;;;;;;75.90;20.00;;;8.20;99.90;;;;;;4244345;27;20046;-59
2023/10/14 03:50:09;;;;;;;33.10;17.53;;;8.20;99.90;;;;;;4242370;27;20043;-59
2023/10/14 03:52:12;;;;;;;49.10;18.47;;;8.20;99.90;;;;;;4244521;27;20092;-59
2023/10/14 03:54:20;;;;;;;45.27;17.43;;;8.20;99.90;;;;;;4243620;27;20035;-60
2023/10/14 03:56:22;;;;;;;29.93;15.97;;;8.20;99.90;;;;;;4243470;27;20088;-60
2023/10/14 03:58:23;;;;;;;46.90;15.93;;;8.20;99.90;;;;;;4243834;27;20096;-60
2023/10/14 04:00:37;;;;;;;43.73;15.17;;;8.20;99.90;;;;;;4244720;27;20425;-59
2023/10/14 04:02:40;;;;;;;50.77;16.43;;;8.20;99.90;;;;;;4243338;27;20027;-60
2023/10/14 04:04:43;;;;;;;42.27;16.87;;;8.30;99.90;;;;;;4244633;27;20032;-60
2023/10/14 04:06:51;;;;;;;47.47;17.10;;;8.30;99.90;;;;;;4243434;27;20080;-57
2023/10/14 04:08:54;;;;;;;77.20;20.63;;;8.40;99.90;;;;;;4244545;27;20035;-60
2023/10/14 04:11:09;;;;;;;88.73;21.43;;;8.40;99.90;;;;;;4243359;27;20424;-59
2023/10/14 04:13:14;;;;;;;38.87;17.53;;;8.50;99.90;;;;;;4243797;27;20047;-59
2023/10/14 04:15:33;;;;;;;50.30;20.37;;;8.50;99.90;;;;;;4242690;27;20511;-62
2023/10/14 04:17:34;;;;;;;75.80;25.97;;;8.50;99.90;;;;;;4244391;27;20378;-59
2023/10/14 04:21:52;;;;;;;55.40;19.00;;;8.60;99.90;;;;;;4243893;27;20497;-59
2023/10/14 04:24:02;;;;;;;42.97;19.20;;;8.60;99.90;;;;;;4243000;28;20047;-60
2023/10/14 04:26:03;;;;;;;35.57;18.17;;;8.50;99.90;;;;;;4244116;27;20035;-58
2023/10/14 04:30:21;;;;;;;55.53;19.60;;;8.60;99.90;;;;;;4244650;27;20065;-58
2023/10/14 04:32:27;;;;;;;44.23;20.90;;;8.50;99.90;;;;;;4243157;27;20471;-60
2023/10/14 04:34:28;;;;;;;39.57;20.47;;;8.60;99.90;;;;;;4243965;28;20047;-60
2023/10/14 04:36:53;;;;;;;52.70;21.83;;;8.60;99.90;;;;;;4242816;27;20064;-60
2023/10/14 04:39:05;;;;;;;39.33;20.27;;;8.60;99.90;;;;;;4243566;27;20023;-59
2023/10/14 04:41:13;;;;;;;51.97;22.50;;;8.70;99.90;;;;;;4226420;28;20051;-59
2023/10/14 04:45:18;;;;;;;58.40;23.67;;;8.80;99.90;;;;;;4242802;27;20107;-59
2023/10/14 04:47:19;;;;;;;93.87;26.07;;;8.90;99.90;;;;;;4244109;28;20062;-60
2023/10/14 04:49:42;;;;;;;112.87;23.97;;;8.90;99.90;;;;;;4243256;27;20453;-60
2023/10/14 04:51:46;;;;;;;123.23;29.03;;;8.90;99.90;;;;;;4244014;27;20080;-58
2023/10/14 04:53:52;;;;;;;83.23;25.60;;;8.90;99.90;;;;;;4242646;27;20036;-60
2023/10/14 04:56:01;;;;;;;72.67;27.20;;;8.90;99.90;;;;;;4244023;28;20076;-60
2023/10/14 05:00:19;;;;;;;77.35;25.60;;;8.90;99.90;;;;;;4244229;28;20112;-60
2023/10/14 05:02:22;;;;;;;82.13;24.47;;;8.90;99.90;;;;;;4226022;28;20120;-59
2023/10/14 05:04:29;;;;;;;81.63;24.17;;;9.00;99.90;;;;;;4226995;28;20098;-59
2023/10/14 05:06:30;;;;;;;79.37;25.07;;;9.00;99.90;;;;;;4225943;28;20035;-60
2023/10/14 05:08:44;;;;;;;92.93;24.97;;;9.00;99.90;;;;;;4242247;28;20081;-60
2023/10/14 05:10:50;;;;;;;76.37;26.63;;;9.00;99.90;;;;;;4242309;27;20081;-59
2023/10/14 05:12:52;;;;;;;138.43;26.53;;;9.10;99.90;;;;;;4244242;27;20039;-61
2023/10/14 05:14:55;;;;;;;67.60;21.67;;;9.00;99.90;;;;;;4242972;28;20534;-60
2023/10/14 05:16:57;;;;;;;73.90;22.93;;;9.00;99.90;;;;;;4243542;27;20039;-60
2023/10/14 05:19:11;;;;;;;71.37;23.90;;;8.90;99.90;;;;;;4243112;27;20043;-60
2023/10/14 05:21:12;;;;;;;116.07;28.47;;;8.90;99.90;;;;;;4243163;28;20065;-60
2023/10/14 05:23:19;;;;;;;142.47;28.63;;;8.90;99.90;;;;;;4242753;27;20039;-58
2023/10/14 05:25:27;;;;;;;77.47;25.17;;;8.90;99.90;;;;;;4243071;28;20016;-61
2023/10/14 05:27:46;;;;;;;104.50;25.60;;;8.90;99.90;;;;;;4242684;28;20072;-58
2023/10/14 05:29:51;;;;;;;104.90;25.50;;;8.90;99.90;;;;;;4242400;28;20658;-60
2023/10/14 05:31:53;;;;;;;182.97;30.60;;;8.80;99.90;;;;;;4242755;27;20035;-60
2023/10/14 05:33:54;;;;;;;159.47;28.60;;;8.80;99.90;;;;;;4238850;27;20036;-55
2023/10/14 05:35:57;;;;;;;90.73;27.43;;;8.80;99.90;;;;;;4236242;28;20028;-62
2023/10/14 05:37:59;;;;;;;111.63;29.73;;;8.80;99.90;;;;;;4235000;27;20035;-60
2023/10/14 05:40:01;;;;;;;145.00;29.50;;;8.80;99.90;;;;;;4247123;27;20046;-60
2023/10/14 05:42:04;;;;;;;105.23;29.90;;;8.80;99.90;;;;;;4245315;27;20063;-60
2023/10/14 05:44:05;;;;;;;109.13;26.57;;;8.80;99.90;;;;;;4246678;27;20035;-61
2023/10/14 05:46:12;;;;;;;137.70;29.17;;;8.80;99.90;;;;;;4245875;27;20416;-61
2023/10/14 05:48:13;;;;;;;234.50;32.47;;;8.80;99.90;;;;;;4246360;27;20283;-59
2023/10/14 05:50:17;;;;;;;108.37;26.90;;;8.80;99.90;;;;;;4235597;27;20020;-61
2023/10/14 05:52:21;;;;;;;79.87;25.10;;;8.80;99.90;;;;;;4229893;28;20085;-62
2023/10/14 05:54:22;;;;;;;76.77;28.63;;;8.90;99.90;;;;;;4237194;27;20039;-63
2023/10/14 05:56:27;;;;;;;163.57;29.00;;;8.90;99.90;;;;;;4246588;27;20046;-61
2023/10/14 05:58:29;;;;;;;88.20;30.37;;;9.00;99.90;;;;;;4245636;27;20039;-61
2023/10/14 06:00:30;;;;;;;73.83;26.27;;;9.10;99.90;;;;;;4245865;27;20410;-60
2023/10/14 06:02:31;;;;;;;81.37;26.63;;;9.10;99.90;;;;;;4245690;27;20100;-60
2023/10/14 06:04:39;;;;;;;56.87;24.90;;;9.20;99.90;;;;;;4245881;27;20095;-61
2023/10/14 06:06:41;;;;;;;60.97;23.37;;;9.30;99.90;;;;;;4244693;27;20398;-61
2023/10/14 06:08:53;;;;;;;104.97;24.63;;;9.40;99.90;;;;;;4245419;27;20463;-63
2023/10/14 06:10:54;;;;;;;107.17;23.33;;;9.40;99.90;;;;;;4245471;27;20035;-62
2023/10/14 06:12:58;;;;;;;69.67;22.17;;;9.40;99.90;;;;;;4245124;27;20039;-63
2023/10/14 06:15:00;;;;;;;100.07;24.10;;;9.40;99.90;;;;;;4246453;27;20072;-61
2023/10/14 06:17:01;;;;;;;69.50;22.00;;;9.50;99.90;;;;;;4244812;27;20035;-64
2023/10/14 06:19:04;;;;;;;69.50;24.50;;;9.50;99.90;;;;;;4246495;27;20119;-61
2023/10/14 06:21:08;;;;;;;66.67;22.40;;;9.50;99.90;;;;;;4244664;27;20041;-60
2023/10/14 06:23:11;;;;;;;79.93;24.37;;;9.50;99.90;;;;;;4246309;27;20479;-61
2023/10/14 06:25:16;;;;;;;51.00;20.87;;;9.40;99.90;;;;;;4244948;27;20047;-60
2023/10/14 06:27:24;;;;;;;63.70;22.67;;;9.40;99.90;;;;;;4246280;27;20084;-61
2023/10/14 06:29:26;;;;;;;100.37;23.23;;;9.40;99.90;;;;;;4243899;27;20152;-61
2023/10/14 06:31:27;;;;;;;100.47;23.57;;;9.30;99.90;;;;;;4246044;27;20023;-60
2023/10/14 06:33:29;;;;;;;68.13;22.23;;;9.30;99.90;;;;;;4244840;27;20162;-62
2023/10/14 06:35:34;;;;;;;77.60;22.77;;;9.40;99.90;;;;;;4245984;27;20068;-63
2023/10/14 06:37:41;;;;;;;57.13;20.57;;;9.40;99.90;;;;;;4244100;27;20035;-58
2023/10/14 06:39:42;;;;;;;48.10;20.17;;;9.50;99.90;;;;;;4245743;27;20107;-62
2023/10/14 06:41:43;;;;;;;28.10;20.20;;;9.50;99.90;;;;;;4243567;27;20043;-61
2023/10/14 06:43:47;;;;;;;28.97;20.23;;;9.50;99.90;;;;;;4245731;27;20575;-63
2023/10/14 06:45:51;;;;;;;49.93;19.27;;;9.60;99.90;;;;;;4245368;27;20088;-62
2023/10/14 06:47:57;;;;;;;43.03;19.97;;;9.60;99.90;;;;;;4245439;27;20134;-60
2023/10/14 06:49:58;;;;;;;58.90;20.40;;;9.60;99.90;;;;;;4245120;27;20099;-62
2023/10/14 06:51:59;;;;;;;49.03;20.23;;;9.50;99.90;;;;;;4245261;27;20084;-62
2023/10/14 06:54:00;;;;;;;69.10;19.50;;;9.60;99.90;;;;;;4245510;27;20035;-63
2023/10/14 06:56:02;;;;;;;48.53;18.53;;;9.60;99.90;;;;;;4244768;27;20150;-64
2023/10/14 06:58:08;;;;;;;56.20;19.10;;;9.60;99.90;;;;;;4245206;27;20422;-61
2023/10/14 07:00:12;;;;;;;85.63;20.47;;;9.60;99.90;;;;;;4244290;27;20027;-61
2023/10/14 07:02:13;;;;;;;71.63;19.40;;;9.60;99.90;;;;;;4245078;27;20043;-64
2023/10/14 07:04:16;;;;;;;56.10;19.00;;;9.60;99.90;;;;;;4244498;27;20073;-63
2023/10/14 07:06:18;;;;;;;64.37;19.73;;;9.60;99.90;;;;;;4245386;27;20100;-61
2023/10/14 07:08:19;;;;;;;65.00;19.87;;;9.70;99.90;;;;;;4244161;27;20455;-62
2023/10/14 07:10:27;;;;;;;47.50;19.03;;;9.70;99.90;;;;;;4245463;27;20043;-61
2023/10/14 07:12:29;;;;;;;57.40;18.70;;;9.70;99.90;;;;;;4243762;27;20096;-61
2023/10/14 07:14:31;;;;;;;64.97;19.07;;;9.70;99.90;;;;;;4245520;27;20460;-62
2023/10/14 07:16:33;;;;;;;49.37;19.13;;;9.70;99.90;;;;;;4244411;27;20083;-61
2023/10/14 07:18:37;;;;;;;46.13;17.63;;;9.70;99.90;;;;;;4245633;27;20031;-61
2023/10/14 07:20:45;;;;;;;38.20;19.43;;;9.80;99.90;;;;;;4244357;27;20425;-59
2023/10/14 07:22:46;;;;;;;43.30;19.33;;;9.80;99.90;;;;;;4246075;27;20059;-60
2023/10/14 07:24:52;;;;;;;88.00;19.43;;;9.70;99.90;;;;;;4243659;27;20548;-59
2023/10/14 07:26:57;;;;;;;33.50;18.40;;;9.80;99.90;;;;;;4244849;27;20135;-61
2023/10/14 07:28:59;;;;;;;36.47;18.60;;;9.70;99.90;;;;;;4243486;27;20039;-60
2023/10/14 07:31:01;;;;;;;76.40;23.93;;;9.80;99.90;;;;;;4244337;27;20100;-61
2023/10/14 07:33:06;;;;;;;48.80;19.30;;;9.80;99.90;;;;;;4244381;27;20469;-58
2023/10/14 07:35:11;;;;;;;45.10;18.87;;;9.80;99.90;;;;;;4244357;27;20039;-62
2023/10/14 07:37:13;;;;;;;40.27;20.83;;;9.80;99.90;;;;;;4244309;27;20076;-62
2023/10/14 07:39:29;;;;;;;32.73;20.93;;;9.80;99.90;;;;;;4243082;27;20092;-62
2023/10/14 07:41:30;;;;;;;32.53;20.60;;;9.90;99.90;;;;;;4227738;27;20043;-62
2023/10/14 07:43:34;;;;;;;44.27;21.30;;;10.00;99.90;;;;;;4226982;28;20120;-63
2023/10/14 07:45:42;;;;;;;41.70;20.63;;;10.10;99.90;;;;;;4245447;27;20039;-61
2023/10/14 07:47:43;;;;;;;37.40;20.10;;;10.10;99.90;;;;;;4244248;27;20035;-62
2023/10/14 07:49:44;;;;;;;46.33;21.03;;;10.10;99.90;;;;;;4245140;27;20100;-57
2023/10/14 07:51:46;;;;;;;30.53;19.47;;;10.20;99.90;;;;;;4243841;27;20512;-59
2023/10/14 07:53:48;;;;;;;44.27;21.27;;;10.20;99.90;;;;;;4244418;27;20453;-60
2023/10/14 07:55:51;;;;;;;35.53;21.50;;;10.30;99.90;;;;;;4242854;27;20084;-60
2023/10/14 07:57:52;;;;;;;41.20;21.57;;;10.30;99.90;;;;;;4244690;27;20084;-57
2023/10/14 07:59:59;;;;;;;44.53;21.93;;;10.40;99.90;;;;;;4242936;27;20051;-58
2023/10/14 08:02:00;;;;;;;54.47;24.83;;;10.40;99.90;;;;;;4243354;27;20039;-61
2023/10/14 08:04:07;;;;;;;45.63;22.87;;;10.50;99.90;;;;;;4243650;27;20031;-61
2023/10/14 08:06:10;;;;;;;48.27;24.93;;;10.50;99.90;;;;;;4244516;27;20096;-64
2023/10/14 08:08:11;;;;;;;44.87;24.77;;;10.60;99.90;;;;;;4243200;27;20031;-62
2023/10/14 08:10:19;;;;;;;62.17;29.93;;;10.60;99.90;;;;;;4244189;27;20035;-61
2023/10/14 08:12:20;;;;;;;57.83;31.63;;;10.70;99.90;;;;;;4243652;27;20064;-59
2023/10/14 08:14:21;;;;;;;69.63;29.60;;;10.80;99.90;;;;;;4243613;27;20115;-63
2023/10/14 08:16:22;;;;;;;75.70;37.10;;;10.80;99.90;;;;;;4244392;27;20053;-60
2023/10/14 08:18:24;;;;;;;74.40;36.60;;;10.80;99.90;;;;;;4243375;27;20031;-60
2023/10/14 08:20:28;;;;;;;76.27;35.50;;;10.90;99.90;;;;;;4244357;27;20088;-60
2023/10/14 08:22:29;;;;;;;67.80;32.67;;;10.90;99.90;;;;;;4243279;27;20131;-64
2023/10/14 08:24:30;;;;;;;63.83;30.80;;;11.00;99.90;;;;;;4244139;27;20099;-63
2023/10/14 08:26:34;;;;;;;62.27;32.13;;;11.00;99.90;;;;;;4243169;28;20080;-61
2023/10/14 08:28:35;;;;;;;51.87;27.23;;;11.20;99.90;;;;;;4244470;27;20126;-62
2023/10/14 08:30:46;;;;;;;57.23;28.87;;;11.10;99.90;;;;;;4243472;27;20479;-62
2023/10/14 08:32:47;;;;;;;45.03;24.33;;;11.20;99.90;;;;;;4244156;27;20088;-59
2023/10/14 08:34:48;;;;;;;57.10;25.10;;;11.30;99.90;;;;;;4243219;28;20412;-63
2023/10/14 08:36:49;;;;;;;44.03;20.73;;;11.20;99.90;;;;;;4244179;27;20057;-60
2023/10/14 08:38:50;;;;;;;38.37;24.20;;;11.20;99.90;;;;;;4243139;28;20072;-60
2023/10/14 08:40:55;;;;;;;37.80;22.53;;;11.20;99.90;;;;;;4243284;27;20060;-60
2023/10/14 08:43:05;;;;;;;41.13;23.67;;;11.40;99.90;;;;;;4242787;28;20353;-58
2023/10/14 08:45:10;;;;;;;41.87;25.57;;;11.40;99.90;;;;;;4244465;27;20039;-57
2023/10/14 08:47:15;;;;;;;45.63;25.57;;;11.60;99.90;;;;;;4241433;27;20087;-59
2023/10/14 08:49:23;;;;;;;107.50;27.87;;;11.80;99.90;;;;;;4227361;28;20047;-59
2023/10/14 08:51:27;;;;;;;40.93;26.10;;;11.90;99.90;;;;;;4226903;27;20084;-61
2023/10/14 08:53:30;;;;;;;45.57;27.93;;;12.00;99.90;;;;;;4235205;28;20544;-59
2023/10/14 08:55:33;;;;;;;45.03;26.20;;;12.20;99.90;;;;;;4243399;27;20107;-60
2023/10/14 08:57:35;;;;;;;47.90;27.50;;;12.30;99.90;;;;;;4243496;27;20043;-59
2023/10/14 08:59:38;;;;;;;41.93;26.40;;;12.40;99.90;;;;;;4243016;27;20065;-60
2023/10/14 09:01:40;;;;;;;42.27;27.13;;;12.60;99.90;;;;;;4242906;28;20019;-58
2023/10/14 09:03:44;;;;;;;43.73;26.67;;;12.60;99.90;;;;;;4243666;28;20064;-60
2023/10/14 09:05:45;;;;;;;40.07;25.60;;;12.80;99.90;;;;;;4242473;27;20437;-60
2023/10/14 09:07:51;;;;;;;41.80;25.00;;;13.00;99.90;;;;;;4243646;27;20032;-59
2023/10/14 09:09:53;;;;;;;35.40;23.23;;;13.40;99.90;;;;;;4242655;28;20455;-60
2023/10/14 09:11:54;;;;;;;37.83;23.27;;;13.70;99.90;;;;;;4243401;27;20019;-60
2023/10/14 09:14:05;;;;;;;39.37;24.30;;;14.10;99.90;;;;;;4244431;27;20040;-60
2023/10/14 09:16:10;;;;;;;35.67;22.93;;;14.50;99.90;;;;;;4247253;27;20088;-57
2023/10/14 09:18:19;;;;;;;30.13;21.27;;;14.70;99.90;;;;;;4244651;27;20096;-56
2023/10/14 09:20:35;;;;;;;30.45;19.83;;;15.00;99.90;;;;;;4245957;27;20406;-57
2023/10/14 09:22:36;;;;;;;35.80;21.05;;;15.20;99.90;;;;;;4245252;27;20055;-56
2023/10/14 09:24:38;;;;;;;31.23;19.05;;;15.40;99.90;;;;;;4246573;27;20108;-57
2023/10/14 09:26:43;;;;;;;31.13;19.25;;;15.50;99.90;;;;;;4246241;27;21035;-58
2023/10/14 09:28:45;;;;;;;25.52;19.60;;;15.80;99.90;;;;;;4247154;27;20038;-57
2023/10/14 09:30:50;;;;;;;30.13;19.77;;;16.00;99.90;;;;;;4246079;27;20039;-55
2023/10/14 09:32:51;;;;;;;27.90;18.67;;;16.20;99.90;;;;;;4247253;27;20457;-57
2023/10/14 09:34:55;;;;;;;33.63;18.58;;;16.30;99.90;;;;;;4245904;27;20547;-58
2023/10/14 09:36:56;;;;;;;27.95;17.40;;;16.50;99.90;;;;;;4246985;27;20052;-57
2023/10/14 09:39:00;;;;;;;25.55;18.35;;;16.50;99.90;;;;;;4245460;27;20023;-56
2023/10/14 09:41:03;;;;;;;23.23;17.60;;;16.70;99.90;;;;;;4246410;27;20027;-57
2023/10/14 09:43:06;;;;;;;24.52;18.30;;;16.80;99.90;;;;;;4245908;27;20035;-56
2023/10/14 09:45:12;;;;;;;21.95;16.70;;;16.80;99.90;;;;;;4246715;27;20051;-58
2023/10/14 09:47:14;;;;;;;27.95;16.67;;;16.90;99.90;;;;;;4246667;27;20453;-58
2023/10/14 09:49:17;;;;;;;25.67;18.17;;;16.90;99.90;;;;;;4246123;27;20027;-58
2023/10/14 09:51:20;;;;;;;19.85;16.27;;;16.90;99.90;;;;;;4246492;27;20023;-56
2023/10/14 09:53:28;;;;;;;24.15;15.48;;;17.10;99.90;;;;;;4245169;27;20072;-57
2023/10/14 09:55:30;;;;;;;22.15;15.32;;;17.20;99.90;;;;;;4246379;27;20114;-59
2023/10/14 09:57:32;;;;;;;25.25;14.43;;;17.30;99.90;;;;;;4245364;27;20023;-57
2023/10/14 09:59:33;;;;;;;22.35;15.68;;;17.50;99.90;;;;;;4246722;27;20039;-57
2023/10/14 10:01:35;;;;;;;22.17;14.40;;;17.70;99.90;;;;;;4245557;27;20464;-57
2023/10/14 10:03:44;;;;;;;23.33;14.30;;;17.80;99.90;;;;;;4246569;27;20046;-57
2023/10/14 10:06:16;;;;;;;18.00;10.60;;;18.10;99.90;;;;;;4245684;27;20494;-56
2023/10/14 10:08:32;;;;;;;16.30;10.63;;;18.20;99.90;;;;;;4246482;27;20211;-56
2023/10/14 10:10:36;;;;;;;21.30;10.73;;;18.30;99.90;;;;;;4245096;27;20563;-55
2023/10/14 10:12:38;;;;;;;19.33;10.88;;;18.50;99.90;;;;;;4246372;27;20433;-58
2023/10/14 10:14:42;;;;;;;14.52;9.82;;;18.60;99.90;;;;;;4245489;27;20460;-58
2023/10/14 10:16:50;;;;;;;21.83;11.00;;;18.60;99.90;;;;;;4246893;27;20476;-58
2023/10/14 10:18:56;;;;;;;13.68;10.10;;;18.70;99.90;;;;;;4245356;27;20475;-57
2023/10/14 10:20:57;;;;;;;18.17;9.02;;;18.80;99.90;;;;;;4246385;27;20080;-58
2023/10/14 10:23:01;;;;;;;16.58;8.52;;;18.70;99.90;;;;;;4245245;27;20103;-55
2023/10/14 10:25:04;;;;;;;15.88;9.18;;;18.70;99.90;;;;;;4245815;27;20099;-56
2023/10/14 10:27:10;;;;;;;10.35;7.63;;;18.80;99.90;;;;;;4244734;27;20055;-57
2023/10/14 10:29:23;;;;;;;10.55;7.72;;;18.90;99.90;;;;;;4246309;27;20069;-59
2023/10/14 10:31:24;;;;;;;12.00;7.40;;;19.00;99.90;;;;;;4244952;27;20039;-60
2023/10/14 10:33:58;;;;;;;11.43;7.55;;;19.00;99.90;;;;;;4246256;27;20051;-57
2023/10/14 10:36:03;;;;;;;9.50;7.47;;;19.00;99.90;;;;;;4244916;27;20043;-56
2023/10/14 10:38:10;;;;;;;11.88;8.20;;;19.10;99.90;;;;;;4245911;27;20096;-55
2023/10/14 10:40:12;;;;;;;12.15;7.35;;;19.10;99.90;;;;;;4245140;27;20051;-54
2023/10/14 10:42:15;;;;;;;10.20;6.65;;;19.30;99.90;;;;;;4245829;27;20019;-57
2023/10/14 10:44:18;;;;;;;14.75;6.78;;;19.40;99.90;;;;;;4244762;27;20031;-56
2023/10/14 10:46:40;;;;;;;9.35;5.60;;;19.50;99.90;;;;;;4246575;27;20103;-59
2023/10/14 10:48:42;;;;;;;8.57;6.25;;;19.50;99.90;;;;;;4245129;27;20100;-57
2023/10/14 10:50:50;;;;;;;11.30;6.60;;;19.60;99.90;;;;;;4245989;27;20088;-56
2023/10/14 10:53:12;;;;;;;13.45;6.03;;;19.70;99.90;;;;;;4244733;27;20491;-57
2023/10/14 10:55:15;;;;;;;8.80;5.20;;;19.60;99.90;;;;;;4245482;27;20039;-57
2023/10/14 10:57:17;;;;;;;11.88;5.30;;;19.70;99.90;;;;;;4244983;27;20039;-61
2023/10/14 10:59:19;;;;;;;9.50;5.30;;;19.70;99.90;;;;;;4246255;27;20084;-62